Time;durP1;ratioP1;P1;durP2;ratioP2;P2;SDS_P1;SDS_P2;PMS_P1;PMS_P2;Temp;Humidity;BMP_temperature;BMP_pressure;BME280_temperature;BME280_humidity;BME280_pressure;Samples;Min_cycle;Max_cycle;Signal;HPM_P1;HPM_P2
2022/10/04 00:00:10;;;;;;;6.90;2.40;;;358.50;2329.60;;;;;;5052839;28;20037;-79
2022/10/04 00:02:38;;;;;;;4.95;2.40;;;358.50;2329.60;;;;;;5054319;28;20021;-79
2022/10/04 00:05:12;;;;;;;7.72;2.28;;;358.50;2329.60;;;;;;5053861;28;20029;-79
2022/10/04 00:07:46;;;;;;;4.65;2.13;;;358.50;2329.60;;;;;;5053091;28;20021;-79
2022/10/04 00:10:17;;;;;;;6.50;2.50;;;358.50;2329.60;;;;;;5052710;28;20036;-79
2022/10/04 00:12:58;;;;;;;3.88;2.10;;;358.50;2329.60;;;;;;5052516;28;20488;-78
2022/10/04 00:15:26;;;;;;;4.38;2.03;;;358.40;2329.60;;;;;;5052840;28;20025;-79
2022/10/04 00:18:11;;;;;;;4.28;1.70;;;358.50;2329.60;;;;;;5052323;28;20051;-79
2022/10/04 00:20:49;;;;;;;4.38;2.25;;;358.50;2329.60;;;;;;5052587;28;20028;-79
2022/10/04 00:23:25;;;;;;;3.88;1.70;;;358.50;2329.60;;;;;;5052759;28;20032;-80
2022/10/04 00:25:52;;;;;;;4.75;2.10;;;358.50;2329.60;;;;;;5052597;28;20025;-79
2022/10/04 00:28:23;;;;;;;5.13;2.20;;;358.50;2329.60;;;;;;5052434;28;20025;-79
2022/10/04 00:31:09;;;;;;;4.97;1.85;;;358.40;2329.60;;;;;;5052543;28;20040;-79
2022/10/04 00:33:42;;;;;;;4.60;1.77;;;358.50;2329.60;;;;;;5052173;28;20036;-78
2022/10/04 00:36:31;;;;;;;4.15;1.92;;;358.40;2329.60;;;;;;5052641;28;20095;-79
2022/10/04 00:39:03;;;;;;;5.35;2.00;;;358.50;2329.60;;;;;;5052530;28;20163;-78
2022/10/04 00:41:41;;;;;;;4.03;2.10;;;358.40;2329.60;;;;;;5052120;28;20033;-81
2022/10/04 00:44:17;;;;;;;3.20;1.80;;;358.40;2329.60;;;;;;5052383;28;20036;-79
2022/10/04 00:46:45;;;;;;;5.00;2.10;;;358.40;2329.60;;;;;;5052178;28;20032;-79
2022/10/04 00:49:12;;;;;;;4.10;2.28;;;358.50;2329.60;;;;;;5051579;28;20025;-80
2022/10/04 00:51:44;;;;;;;5.40;2.05;;;358.50;2329.60;;;;;;5053285;28;20033;-79
2022/10/04 00:54:12;;;;;;;5.53;2.00;;;358.50;2329.60;;;;;;5051976;28;20040;-79
2022/10/04 00:56:42;;;;;;;3.85;1.90;;;358.50;2329.60;;;;;;5052188;28;20032;-79
2022/10/04 00:59:32;;;;;;;3.88;1.70;;;358.50;2329.60;;;;;;5052261;28;20021;-79
2022/10/04 01:02:15;;;;;;;4.35;1.70;;;358.50;2329.60;;;;;;5047053;28;20045;-79
2022/10/04 01:05:12;;;;;;;5.50;2.00;;;358.50;2329.60;;;;;;5052260;28;20031;-79
2022/10/04 01:07:46;;;;;;;3.97;1.83;;;358.60;2329.60;;;;;;5051260;28;20032;-80
2022/10/04 01:10:39;;;;;;;6.57;1.63;;;358.50;2329.60;;;;;;5051827;28;20102;-79
2022/10/04 01:13:23;;;;;;;;;;;358.50;2329.60;;;;;;5052552;28;20025;-79
2022/10/04 01:16:18;;;;;;;4.55;1.92;;;358.50;2329.60;;;;;;5051740;28;20423;-79
2022/10/04 01:18:45;;;;;;;3.90;1.67;;;358.50;2329.60;;;;;;5012390;28;20196;-80
2022/10/04 01:21:26;;;;;;;4.70;2.10;;;358.50;2329.60;;;;;;5012438;28;20506;-80
2022/10/04 01:24:14;;;;;;;7.40;1.73;;;358.60;2329.60;;;;;;5012143;28;20028;-80
2022/10/04 01:26:44;;;;;;;4.18;1.80;;;358.60;2329.60;;;;;;5013673;28;20025;-79
2022/10/04 01:29:23;;;;;;;3.38;1.70;;;358.50;2329.60;;;;;;5012033;28;20129;-80
2022/10/04 01:31:52;;;;;;;5.60;1.98;;;358.50;2329.60;;;;;;5013582;28;20075;-81
2022/10/04 01:34:27;;;;;;;5.03;1.90;;;358.50;2329.60;;;;;;5012265;28;20490;-79
2022/10/04 01:36:59;;;;;;;4.47;2.17;;;358.50;2329.60;;;;;;5012056;28;20517;-79
2022/10/04 01:39:26;;;;;;;4.07;1.98;;;358.50;2329.60;;;;;;5011778;28;20026;-80
2022/10/04 01:42:07;;;;;;;4.65;2.13;;;358.50;2329.60;;;;;;4992572;28;20459;-79
2022/10/04 01:45:04;;;;;;;6.38;2.50;;;358.60;2329.60;;;;;;4991439;28;20538;-79
2022/10/04 01:47:42;;;;;;;4.97;2.28;;;358.60;2329.60;;;;;;4992628;28;20502;-79
2022/10/04 01:50:27;;;;;;;6.45;2.58;;;358.70;2329.60;;;;;;4992188;28;20475;-79
2022/10/04 01:53:08;;;;;;;5.10;2.30;;;358.70;2329.60;;;;;;4992527;28;20029;-80
2022/10/04 01:55:36;;;;;;;5.22;2.10;;;358.60;2329.60;;;;;;4993880;28;20037;-79
2022/10/04 01:58:29;;;;;;;6.13;2.53;;;358.60;2329.60;;;;;;4992181;28;20076;-78
2022/10/04 02:00:59;;;;;;;5.17;2.77;;;358.60;2329.60;;;;;;4995020;28;20042;-80
2022/10/04 02:03:34;;;;;;;5.55;2.50;;;358.50;2329.60;;;;;;4997312;28;20126;-79
2022/10/04 02:06:04;;;;;;;4.93;2.10;;;358.50;2329.60;;;;;;4996554;28;20030;-79
2022/10/04 02:08:34;;;;;;;5.18;2.10;;;358.50;2329.60;;;;;;4995982;28;20035;-79
2022/10/04 02:11:03;;;;;;;6.15;2.05;;;358.40;2329.60;;;;;;4996852;28;20113;-79
2022/10/04 02:13:35;;;;;;;5.47;2.20;;;358.50;2329.60;;;;;;4995891;28;20027;-79
2022/10/04 02:16:03;;;;;;;3.88;1.80;;;358.40;2329.60;;;;;;4995887;28;20031;-79
2022/10/04 02:18:33;;;;;;;5.05;1.80;;;358.40;2329.60;;;;;;5036171;28;20116;-79
2022/10/04 02:20:59;;;;;;;5.60;2.30;;;358.40;2329.60;;;;;;5035009;28;20425;-79
2022/10/04 02:23:25;;;;;;;4.68;2.20;;;333.70;2329.60;;;;;;5035036;28;20485;-79
2022/10/04 02:25:51;;;;;;;5.40;1.65;;;333.70;2329.60;;;;;;5034650;28;20071;-79
2022/10/04 02:28:17;;;;;;;5.82;1.88;;;333.70;2329.60;;;;;;5036291;28;20100;-79
2022/10/04 02:33:42;;;;;;;5.78;2.00;;;333.70;2329.60;;;;;;5035593;28;20048;-79
2022/10/04 02:36:09;;;;;;;4.72;1.80;;;358.40;2329.60;;;;;;5034867;28;20079;-79
2022/10/04 02:38:43;;;;;;;4.20;2.13;;;358.40;2329.60;;;;;;5034685;28;20075;-79
2022/10/04 02:41:26;;;;;;;6.38;2.17;;;358.40;2329.60;;;;;;5034415;28;20124;-79
2022/10/04 02:43:57;;;;;;;3.72;1.90;;;333.70;2329.60;;;;;;5034796;28;20052;-79
2022/10/04 02:46:27;;;;;;;8.23;2.03;;;333.70;2329.60;;;;;;5034466;28;20057;-79
2022/10/04 02:48:59;;;;;;;4.07;2.03;;;333.70;2329.60;;;;;;5034367;28;20033;-80
2022/10/04 02:51:37;;;;;;;3.40;2.00;;;333.70;2329.60;;;;;;5034559;28;20440;-80
2022/10/04 02:54:23;;;;;;;4.20;2.10;;;333.60;2329.60;;;;;;5034236;28;20057;-80
2022/10/04 02:56:54;;;;;;;7.85;1.95;;;333.60;2329.60;;;;;;5034534;28;20032;-80
2022/10/04 02:59:21;;;;;;;5.90;2.00;;;333.60;2329.60;;;;;;5034363;28;20033;-79
2022/10/04 03:01:54;;;;;;;6.70;3.20;;;333.60;2329.60;;;;;;5035375;28;20030;-79
2022/10/04 03:04:24;;;;;;;5.75;2.40;;;333.50;2329.60;;;;;;5034276;28;20037;-80
2022/10/04 03:06:52;;;;;;;4.93;2.40;;;333.50;2329.60;;;;;;5035516;28;20104;-80
2022/10/04 03:09:21;;;;;;;6.22;2.40;;;333.50;2329.60;;;;;;5034205;28;20032;-81
2022/10/04 03:11:49;;;;;;;4.25;2.30;;;333.40;2329.60;;;;;;5033200;28;20033;-79
2022/10/04 03:14:23;;;;;;;7.95;2.90;;;333.50;2329.60;;;;;;5034851;28;20078;-79
2022/10/04 03:16:55;;;;;;;5.40;2.15;;;333.50;2329.60;;;;;;5033893;28;20054;-79
2022/10/04 03:19:22;;;;;;;;;;;333.50;2329.60;;;;;;5034435;28;20026;-80
2022/10/04 03:21:52;;;;;;;4.85;2.15;;;333.50;2329.60;;;;;;5033684;28;19996;-79
2022/10/04 03:24:21;;;;;;;5.68;2.15;;;333.40;2329.60;;;;;;5033911;28;20414;-79
2022/10/04 03:26:52;;;;;;;3.70;1.98;;;333.40;2329.60;;;;;;5035137;28;20017;-79
2022/10/04 03:29:20;;;;;;;3.60;1.98;;;333.50;2329.60;;;;;;5033543;28;20034;-79
2022/10/04 03:31:49;;;;;;;3.60;1.95;;;333.50;2329.60;;;;;;5033763;28;20473;-78
2022/10/04 03:34:20;;;;;;;5.25;1.90;;;333.30;2329.60;;;;;;5034589;28;20025;-79
2022/10/04 03:36:48;;;;;;;5.03;1.95;;;;;;;;;;5033400;28;20026;-79
2022/10/04 03:39:18;;;;;;;6.78;2.75;;;;;;;;;;5033668;28;20041;-79
2022/10/04 03:41:44;;;;;;;4.60;2.20;;;333.40;2329.60;;;;;;5033677;28;20037;-80
2022/10/04 03:44:17;;;;;;;5.82;2.33;;;333.30;2329.60;;;;;;5034772;28;20113;-79
2022/10/04 03:46:45;;;;;;;5.35;2.22;;;333.20;2329.60;;;;;;5033519;28;20033;-79
2022/10/04 03:49:16;;;;;;;5.00;2.10;;;333.20;2329.60;;;;;;5032984;28;20584;-78
2022/10/04 03:51:48;;;;;;;4.15;2.42;;;333.10;2329.60;;;;;;5033365;28;20116;-79
2022/10/04 03:54:19;;;;;;;4.85;2.13;;;333.00;2329.60;;;;;;5033379;28;20021;-79
2022/10/04 03:56:46;;;;;;;5.68;2.25;;;333.10;2329.60;;;;;;5033001;28;20120;-79
2022/10/04 03:59:16;;;;;;;8.27;3.42;;;333.10;2329.60;;;;;;5033289;28;20378;-79
2022/10/04 04:02:01;;;;;;;8.40;3.40;;;333.10;2329.60;;;;;;5033269;28;20029;-79
2022/10/04 04:04:58;;;;;;;4.68;2.85;;;333.10;2329.60;;;;;;5032757;28;20026;-79
2022/10/04 04:07:46;;;;;;;4.22;2.80;;;333.10;2329.60;;;;;;5033054;28;20486;-79
2022/10/04 04:10:30;;;;;;;9.00;5.65;;;333.00;2329.60;;;;;;5032750;28;20148;-79
2022/10/04 04:13:22;;;;;;;22.40;10.52;;;333.00;2329.60;;;;;;5033059;28;20021;-79
2022/10/04 04:15:48;;;;;;;11.65;5.38;;;332.90;2329.60;;;;;;5025378;28;20614;-79
2022/10/04 04:18:19;;;;;;;6.90;3.88;;;307.80;2304.00;;;;;;5032507;28;20049;-78
2022/10/04 04:20:46;;;;;;;8.45;4.00;;;307.90;2304.00;;;;;;5032901;28;20026;-79
2022/10/04 04:23:15;;;;;;;9.32;4.13;;;308.00;2304.00;;;;;;5032857;28;20033;-79
2022/10/04 04:25:47;;;;;;;8.95;4.22;;;308.00;2304.00;;;;;;5032398;28;20021;-80
2022/10/04 04:28:28;;;;;;;;;;;308.10;2304.00;;;;;;5033090;28;20060;-80
2022/10/04 04:31:06;;;;;;;8.27;3.75;;;308.10;2304.00;;;;;;5032279;28;20321;-79
2022/10/04 04:33:50;;;;;;;10.20;3.70;;;308.10;2304.00;;;;;;5032730;28;20025;-79
2022/10/04 04:36:16;;;;;;;8.23;2.95;;;308.10;2304.00;;;;;;5033671;28;20025;-79
2022/10/04 04:41:30;;;;;;;7.32;2.80;;;308.10;2304.00;;;;;;5033982;28;20036;-79
2022/10/04 04:43:57;;;;;;;5.22;3.10;;;308.10;2304.00;;;;;;5033499;28;20497;-78
2022/10/04 04:46:23;;;;;;;5.28;3.22;;;308.10;2304.00;;;;;;5033458;28;20030;-79
2022/10/04 04:49:00;;;;;;;5.93;3.80;;;308.10;2304.00;;;;;;5032297;28;20029;-78
2022/10/04 04:51:26;;;;;;;10.40;4.57;;;307.90;2304.00;;;;;;5032508;28;20130;-79
2022/10/04 04:53:53;;;;;;;5.57;3.30;;;332.80;2329.60;;;;;;5031896;28;20025;-78
2022/10/04 04:56:24;;;;;;;5.68;3.33;;;332.90;2329.60;;;;;;5032413;28;20842;-79
2022/10/04 04:58:53;;;;;;;6.53;3.15;;;332.80;2329.60;;;;;;5032437;28;20099;-78
2022/10/04 05:01:30;;;;;;;8.13;3.35;;;308.10;2304.00;;;;;;5032321;28;20084;-79
2022/10/04 05:04:17;;;;;;;5.28;2.50;;;308.10;2304.00;;;;;;5032494;28;20025;-78
2022/10/04 05:06:46;;;;;;;6.05;3.40;;;308.10;2304.00;;;;;;5032052;28;20033;-80
2022/10/04 05:09:33;;;;;;;12.35;6.18;;;332.80;2329.60;;;;;;5033516;28;20025;-79
2022/10/04 05:12:19;;;;;;;9.10;6.35;;;308.10;2304.00;;;;;;5032134;28;20040;-80
2022/10/04 05:14:48;;;;;;;9.55;5.10;;;308.10;2304.00;;;;;;5031950;28;20028;-80
2022/10/04 05:17:26;;;;;;;7.72;4.38;;;308.10;2304.00;;;;;;5031698;28;20071;-78
2022/10/04 05:19:56;;;;;;;6.78;4.00;;;332.80;2329.60;;;;;;5033209;28;20068;-78
2022/10/04 05:22:24;;;;;;;7.20;3.60;;;332.80;2329.60;;;;;;5033443;28;20026;-80
2022/10/04 05:25:35;;;;;;;6.80;3.22;;;332.80;2329.60;;;;;;5033534;28;20068;-80
2022/10/04 05:28:01;;;;;;;6.60;3.33;;;332.80;2329.60;;;;;;5025705;28;20045;-80
2022/10/04 05:30:50;;;;;;;8.73;3.75;;;332.80;2329.60;;;;;;5031922;28;20033;-80
2022/10/04 05:33:48;;;;;;;9.27;4.45;;;332.90;2329.60;;;;;;5032224;28;20029;-80
2022/10/04 05:36:45;;;;;;;9.45;3.97;;;332.90;2329.60;;;;;;5035426;28;20071;-78
2022/10/04 05:39:59;;;;;;;9.85;3.95;;;332.90;2329.60;;;;;;5044325;28;20048;-81
2022/10/04 05:42:37;;;;;;;9.68;5.20;;;333.00;2329.60;;;;;;5032924;28;20038;-79
2022/10/04 05:45:30;;;;;;;8.80;5.22;;;333.00;2329.60;;;;;;5038743;28;20053;-81
2022/10/04 05:47:59;;;;;;;7.85;4.25;;;333.10;2329.60;;;;;;5033619;28;20034;-79
2022/10/04 05:50:43;;;;;;;8.50;4.45;;;333.10;2329.60;;;;;;5035654;28;20483;-79
2022/10/04 05:53:30;;;;;;;10.18;5.10;;;333.10;2329.60;;;;;;5035659;28;20021;-79
2022/10/04 05:55:58;;;;;;;12.02;5.32;;;333.10;2329.60;;;;;;5035335;28;20079;-80
2022/10/04 06:01:58;;;;;;;8.63;4.03;;;333.20;2329.60;;;;;;5055758;28;20040;-80
2022/10/04 06:04:27;;;;;;;8.93;4.18;;;333.30;2329.60;;;;;;5055377;28;20025;-80
2022/10/04 06:06:59;;;;;;;8.43;4.45;;;333.30;2329.60;;;;;;5055219;28;20032;-79
2022/10/04 06:09:45;;;;;;;8.52;4.63;;;333.30;2329.60;;;;;;5054959;28;20381;-79
2022/10/04 06:12:34;;;;;;;13.35;4.78;;;333.30;2329.60;;;;;;5055227;28;20528;-78
2022/10/04 06:18:53;;;;;;;5.93;3.47;;;333.30;2329.60;;;;;;5056379;28;20071;-78
2022/10/04 06:22:10;;;;;;;6.05;4.00;;;333.20;2329.60;;;;;;5055235;28;20056;-79
2022/10/04 06:24:40;;;;;;;7.78;4.15;;;333.30;2329.60;;;;;;5025092;28;20406;-79
2022/10/04 06:27:24;;;;;;;8.05;4.00;;;333.40;2329.60;;;;;;5054817;28;20025;-78
2022/10/04 06:30:04;;;;;;;6.93;3.90;;;333.30;2329.60;;;;;;5054769;28;20470;-78
2022/10/04 06:33:04;;;;;;;7.72;4.55;;;333.40;2329.60;;;;;;5056224;28;20498;-79
2022/10/04 06:35:46;;;;;;;10.05;4.57;;;333.50;2329.60;;;;;;5054838;28;20033;-78
2022/10/04 06:38:46;;;;;;;5.93;3.60;;;333.50;2329.60;;;;;;5054606;28;20420;-79
2022/10/04 06:41:30;;;;;;;6.40;3.40;;;333.60;2329.60;;;;;;5054357;28;20033;-78
2022/10/04 06:44:31;;;;;;;11.02;4.20;;;333.60;2329.60;;;;;;5054565;28;20025;-78
2022/10/04 06:47:12;;;;;;;8.05;3.63;;;333.70;2329.60;;;;;;5054787;28;20095;-78
2022/10/04 06:50:19;;;;;;;9.68;4.50;;;358.40;2329.60;;;;;;5054651;28;20489;-79
2022/10/04 06:52:45;;;;;;;6.45;3.17;;;333.70;2329.60;;;;;;5054343;28;20044;-80
2022/10/04 06:55:49;;;;;;;7.72;4.53;;;358.40;2329.60;;;;;;5054471;28;20489;-79
2022/10/04 06:58:32;;;;;;;7.97;4.72;;;358.40;2329.60;;;;;;5040730;28;20033;-80
2022/10/04 07:01:21;;;;;;;7.43;4.15;;;358.50;2329.60;;;;;;5054318;28;20021;-79
2022/10/04 07:03:52;;;;;;;8.65;3.67;;;358.60;2329.60;;;;;;5054314;28;20057;-80
2022/10/04 07:06:29;;;;;;;8.77;4.22;;;358.70;2329.60;;;;;;5054916;28;20021;-79
2022/10/04 07:09:01;;;;;;;8.40;3.50;;;358.90;2329.60;;;;;;5054146;28;20385;-79
2022/10/04 07:11:48;;;;;;;6.07;3.30;;;359.00;2329.60;;;;;;5055041;28;20037;-79
2022/10/04 07:14:30;;;;;;;6.68;3.53;;;359.10;2329.60;;;;;;5053861;28;20049;-80
2022/10/04 07:17:38;;;;;;;7.80;3.42;;;359.10;2329.60;;;;;;5055269;28;20091;-79
2022/10/04 07:20:06;;;;;;;6.53;3.80;;;359.10;2329.60;;;;;;4996285;28;20060;-79
2022/10/04 07:22:43;;;;;;;7.10;3.63;;;359.10;2329.60;;;;;;5041890;28;20037;-78
2022/10/04 07:25:40;;;;;;;8.93;3.65;;;359.20;2329.60;;;;;;5054899;28;20390;-79
2022/10/04 07:31:05;;;;;;;6.88;3.42;;;359.30;2329.60;;;;;;5054704;28;20489;-80
2022/10/04 07:33:48;;;;;;;7.22;3.65;;;384.00;2329.60;;;;;;5053687;28;20037;-79
2022/10/04 07:36:29;;;;;;;8.20;3.78;;;384.00;2329.60;;;;;;5053634;28;20052;-78
2022/10/04 07:39:03;;;;;;;6.35;2.72;;;384.10;2329.60;;;;;;5054865;28;20484;-78
2022/10/04 07:41:51;;;;;;;6.50;3.60;;;384.00;2329.60;;;;;;5053339;28;20033;-78
2022/10/04 07:44:36;;;;;;;7.93;3.65;;;384.00;2329.60;;;;;;5054818;28;20458;-78
2022/10/04 07:47:25;;;;;;;8.05;4.10;;;384.20;2329.60;;;;;;5053050;28;20035;-78
2022/10/04 07:49:52;;;;;;;7.63;4.20;;;384.40;2329.60;;;;;;5053362;28;20029;-78
2022/10/04 07:53:09;;;;;;;7.05;4.38;;;384.60;2329.60;;;;;;5054467;28;20029;-79
2022/10/04 07:56:06;;;;;;;7.10;3.75;;;384.60;2329.60;;;;;;5019395;28;20033;-78
2022/10/04 07:59:17;;;;;;;9.55;3.70;;;384.70;2329.60;;;;;;5054496;28;20029;-80
2022/10/04 08:01:53;;;;;;;4.15;3.20;;;384.70;2329.60;;;;;;5037309;28;20060;-83
2022/10/04 08:04:38;;;;;;;7.93;3.35;;;384.90;2329.60;;;;;;5053364;28;20021;-80
2022/10/04 08:07:30;;;;;;;6.30;2.85;;;384.70;2329.60;;;;;;5053168;28;20025;-81
2022/10/04 08:10:24;;;;;;;5.97;3.97;;;384.70;2329.60;;;;;;5053068;28;20025;-81
2022/10/04 08:13:21;;;;;;;7.88;3.67;;;384.70;2329.60;;;;;;5052960;28;20494;-80
2022/10/04 08:15:47;;;;;;;6.30;4.35;;;384.70;2329.60;;;;;;5052651;28;20025;-81
2022/10/04 08:18:34;;;;;;;5.97;3.53;;;384.70;2329.60;;;;;;5052605;28;20103;-79
2022/10/04 08:21:13;;;;;;;5.28;3.78;;;384.70;2329.60;;;;;;5054129;28;20033;-80
2022/10/04 08:24:20;;;;;;;4.20;2.97;;;384.70;2329.60;;;;;;5052652;28;20044;-81
2022/10/04 08:26:48;;;;;;;6.30;4.32;;;384.60;2329.60;;;;;;5039211;28;20037;-82
2022/10/04 08:29:42;;;;;;;8.98;4.97;;;384.60;2329.60;;;;;;5052482;28;20025;-79
2022/10/04 08:32:10;;;;;;;8.02;4.78;;;384.60;2329.60;;;;;;5052572;28;20040;-78
2022/10/04 08:34:56;;;;;;;11.05;6.85;;;384.60;2329.60;;;;;;5054213;28;20029;-79
2022/10/04 08:37:44;;;;;;;8.55;5.32;;;384.60;2329.60;;;;;;5052368;28;20049;-79
2022/10/04 08:40:43;;;;;;;6.63;4.45;;;384.60;2329.60;;;;;;5053644;28;20025;-78
2022/10/04 08:43:15;;;;;;;7.82;4.22;;;384.70;2329.60;;;;;;5052299;28;20545;-80
2022/10/04 08:46:08;;;;;;;8.73;5.23;;;384.70;2329.60;;;;;;5052352;28;20021;-78
2022/10/04 08:48:37;;;;;;;;;;;384.70;2329.60;;;;;;5052724;28;20032;-78
2022/10/04 08:51:09;;;;;;;8.48;4.60;;;384.70;2329.60;;;;;;5051985;28;19913;-78
2022/10/04 08:54:04;;;;;;;8.90;4.68;;;384.90;2329.60;;;;;;5053525;28;20025;-77
2022/10/04 08:57:08;;;;;;;5.07;3.35;;;384.90;2329.60;;;;;;5053531;28;20032;-77
2022/10/04 08:59:45;;;;;;;5.53;3.72;;;409.60;2355.20;;;;;;5053892;28;20029;-78
2022/10/04 09:02:36;;;;;;;7.20;4.15;;;384.90;2329.60;;;;;;5052079;28;20033;-77
2022/10/04 09:05:18;;;;;;;10.45;4.45;;;409.70;2355.20;;;;;;5051843;28;20037;-77
2022/10/04 09:08:21;;;;;;;9.63;5.23;;;409.70;2355.20;;;;;;5051946;28;20036;-78
2022/10/04 09:11:06;;;;;;;;;;;409.60;2355.20;;;;;;5052298;28;20025;-78
2022/10/04 09:13:44;;;;;;;13.70;7.22;;;409.70;2355.20;;;;;;5051997;28;19904;-77
2022/10/04 09:16:43;;;;;;;8.77;4.95;;;410.00;2355.20;;;;;;5051754;28;20478;-78
2022/10/04 09:19:32;;;;;;;8.45;4.90;;;410.20;2355.20;;;;;;5051729;28;20029;-78
2022/10/04 09:22:34;;;;;;;9.13;5.00;;;410.40;2355.20;;;;;;5051974;28;20120;-77
2022/10/04 09:25:31;;;;;;;10.07;6.50;;;410.30;2355.20;;;;;;5051826;28;20029;-76
2022/10/04 09:28:10;;;;;;;9.73;5.38;;;410.50;2355.20;;;;;;5046859;28;20034;-76
2022/10/04 09:30:39;;;;;;;9.07;5.78;;;410.50;2355.20;;;;;;5053386;28;20033;-76
2022/10/04 09:33:14;;;;;;;14.02;5.05;;;410.30;2355.20;;;;;;5051534;28;20028;-79
2022/10/04 09:36:09;;;;;;;9.00;5.25;;;410.20;2355.20;;;;;;5051744;28;20283;-78
2022/10/04 09:38:39;;;;;;;8.23;4.80;;;410.20;2355.20;;;;;;5053216;28;20021;-79
2022/10/04 09:41:25;;;;;;;10.18;4.75;;;410.20;2355.20;;;;;;5051386;28;20086;-76
2022/10/04 09:44:11;;;;;;;7.70;5.13;;;410.20;2355.20;;;;;;5051761;28;20124;-76
2022/10/04 09:46:37;;;;;;;8.95;5.05;;;410.20;2355.20;;;;;;5052683;28;20017;-76
2022/10/04 09:49:21;;;;;;;11.13;6.07;;;410.30;2355.20;;;;;;5051686;28;20025;-77
2022/10/04 09:52:15;;;;;;;11.43;6.07;;;410.30;2355.20;;;;;;5052569;28;20382;-76
2022/10/04 09:55:04;;;;;;;10.68;6.15;;;410.30;2355.20;;;;;;5052391;28;20485;-79
2022/10/04 09:58:06;;;;;;;8.75;4.75;;;410.30;2355.20;;;;;;5051510;28;20098;-78
2022/10/04 10:00:51;;;;;;;49.92;15.75;;;410.30;2355.20;;;;;;5051448;28;20072;-78
2022/10/04 10:03:32;;;;;;;21.95;9.10;;;410.30;2355.20;;;;;;5050403;28;20083;-77
2022/10/04 10:06:32;;;;;;;20.48;11.23;;;410.40;2355.20;;;;;;5051395;28;20083;-78
2022/10/04 10:15:58;;;;;;;8.85;5.85;;;410.50;2355.20;;;;;;5010517;28;20057;-78
2022/10/04 10:18:40;;;;;;;12.60;5.50;;;435.20;2355.20;;;;;;5067895;28;20111;-78
2022/10/04 10:21:30;;;;;;;7.43;4.87;;;435.30;2355.20;;;;;;5053851;28;20067;-78
2022/10/04 10:24:28;;;;;;;10.10;4.53;;;435.60;2355.20;;;;;;5055028;28;20025;-78
2022/10/04 10:27:24;;;;;;;10.45;6.00;;;435.90;2355.20;;;;;;5054962;28;20367;-78
2022/10/04 10:29:58;;;;;;;5.00;3.80;;;435.90;2355.20;;;;;;5047066;28;20108;-78
2022/10/04 10:33:02;;;;;;;6.53;4.57;;;435.80;2355.20;;;;;;5051176;28;20037;-78
2022/10/04 10:35:49;;;;;;;7.53;4.75;;;435.70;2355.20;;;;;;5033355;28;20029;-79
2022/10/04 10:38:30;;;;;;;8.68;4.85;;;435.70;2355.20;;;;;;5034551;28;20367;-79
2022/10/04 10:41:18;;;;;;;7.97;4.82;;;435.60;2355.20;;;;;;5051108;28;20478;-79
2022/10/04 10:44:02;;;;;;;11.18;5.18;;;435.60;2355.20;;;;;;5050783;28;20029;-78
2022/10/04 10:46:41;;;;;;;8.55;5.32;;;435.50;2355.20;;;;;;5035704;28;20057;-79
2022/10/04 10:49:18;;;;;;;7.45;4.00;;;435.40;2355.20;;;;;;5050953;28;20025;-79
2022/10/04 10:52:30;;;;;;;6.32;3.65;;;435.40;2355.20;;;;;;5035441;28;20035;-78
2022/10/04 10:55:33;;;;;;;8.00;3.95;;;435.30;2355.20;;;;;;5031186;28;20048;-78
2022/10/04 10:58:40;;;;;;;10.52;4.07;;;435.30;2355.20;;;;;;5050729;28;20470;-79
2022/10/04 11:01:48;;;;;;;7.70;4.25;;;435.30;2355.20;;;;;;5035672;28;20033;-77
2022/10/04 11:04:38;;;;;;;7.50;4.57;;;435.30;2355.20;;;;;;5050547;28;20025;-76
2022/10/04 11:07:52;;;;;;;5.90;3.90;;;435.40;2355.20;;;;;;5051150;28;20026;-79
2022/10/04 11:10:32;;;;;;;;;;;435.40;2355.20;;;;;;4982670;28;20042;-76
2022/10/04 11:13:17;;;;;;;8.02;4.70;;;435.50;2355.20;;;;;;5051495;28;19912;-82
2022/10/04 11:16:20;;;;;;;6.18;4.07;;;435.40;2355.20;;;;;;5035686;28;20025;-79
2022/10/04 11:19:05;;;;;;;;;;;435.40;2355.20;;;;;;5034685;28;20624;-83
2022/10/04 11:22:06;;;;;;;10.75;5.72;;;435.40;2355.20;;;;;;5050941;28;19909;-79
2022/10/04 11:24:50;;;;;;;11.00;7.03;;;435.30;2355.20;;;;;;5035428;28;20112;-81
2022/10/04 11:27:42;;;;;;;7.95;5.32;;;435.30;2355.20;;;;;;5051027;28;20029;-80
2022/10/04 11:30:14;;;;;;;10.68;5.40;;;435.40;2355.20;;;;;;5053128;28;20044;-81
2022/10/04 11:33:11;;;;;;;7.68;5.10;;;435.60;2355.20;;;;;;5053283;28;20064;-84
2022/10/04 11:35:59;;;;;;;6.63;3.78;;;460.90;2380.80;;;;;;5053088;28;20036;-81
2022/10/04 11:38:47;;;;;;;5.18;3.10;;;461.60;2380.80;;;;;;5051782;28;20104;-80
2022/10/04 11:41:13;;;;;;;5.85;2.80;;;;;;;;;;5047469;28;20025;-81
2022/10/04 11:43:45;;;;;;;7.75;3.63;;;;;;;;;;5051287;28;20021;-80
2022/10/04 11:46:32;;;;;;;5.33;3.97;;;;;;;;;;5047016;28;20387;-80
2022/10/04 11:49:27;;;;;;;9.00;3.10;;;461.20;2380.80;;;;;;5045542;28;20258;-80
2022/10/04 11:52:16;;;;;;;5.82;3.88;;;461.10;2380.80;;;;;;5047489;28;20041;-83
2022/10/04 11:54:48;;;;;;;9.50;4.18;;;460.80;2380.80;;;;;;5033202;28;20025;-79
2022/10/04 11:57:20;;;;;;;9.73;4.57;;;460.80;2380.80;;;;;;5047805;28;20134;-81
2022/10/04 12:00:19;;;;;;;8.18;4.60;;;436.10;2355.20;;;;;;5039622;28;20382;-83
2022/10/04 12:03:06;;;;;;;15.65;5.60;;;436.00;2355.20;;;;;;5049664;28;20096;-81
2022/10/04 12:06:09;;;;;;;15.23;4.82;;;435.90;2355.20;;;;;;5051483;28;20091;-78
2022/10/04 12:08:50;;;;;;;7.25;4.75;;;435.80;2355.20;;;;;;5038358;28;20026;-79
2022/10/04 12:14:39;;;;;;;7.97;4.18;;;435.70;2355.20;;;;;;5033281;28;20071;-80
2022/10/04 12:17:42;;;;;;;6.35;3.42;;;435.80;2355.20;;;;;;5037292;28;20047;-81
2022/10/04 12:20:27;;;;;;;9.55;7.38;;;435.80;2355.20;;;;;;5048704;28;20040;-79
2022/10/04 12:23:39;;;;;;;13.02;10.35;;;435.80;2355.20;;;;;;5034036;28;20021;-79
2022/10/04 12:26:14;;;;;;;21.40;15.73;;;435.80;2355.20;;;;;;5048443;28;20075;-81
2022/10/04 12:29:06;;;;;;;31.52;23.63;;;435.90;2355.20;;;;;;5038013;28;20095;-79
2022/10/04 12:31:36;;;;;;;16.02;10.25;;;436.10;2355.20;;;;;;5041509;28;20100;-78
2022/10/04 12:34:13;;;;;;;8.05;5.40;;;436.10;2355.20;;;;;;5045934;28;20024;-79
2022/10/04 12:36:57;;;;;;;8.27;5.78;;;436.10;2355.20;;;;;;5047119;28;20463;-79
2022/10/04 12:39:42;;;;;;;12.05;10.02;;;436.10;2355.20;;;;;;5046819;28;20032;-80
2022/10/04 12:42:38;;;;;;;11.52;7.15;;;436.10;2355.20;;;;;;5054963;28;20394;-78
2022/10/04 12:45:24;;;;;;;11.73;7.47;;;436.10;2355.20;;;;;;5061257;28;20021;-77
2022/10/04 12:47:49;;;;;;;11.70;7.22;;;436.10;2355.20;;;;;;5039511;28;20029;-78
2022/10/04 12:50:51;;;;;;;11.75;7.00;;;436.00;2355.20;;;;;;5032632;28;20072;-80
2022/10/04 12:53:22;;;;;;;14.55;11.63;;;436.00;2355.20;;;;;;5032068;28;20029;-81
2022/10/04 12:56:23;;;;;;;18.02;11.65;;;436.00;2355.20;;;;;;5032499;28;20120;-82
2022/10/04 12:59:01;;;;;;;25.13;22.05;;;436.00;2355.20;;;;;;4992108;28;20027;-81
2022/10/04 13:02:08;;;;;;;16.80;14.85;;;435.80;2355.20;;;;;;5027379;28;20132;-84
2022/10/04 13:04:55;;;;;;;19.13;10.60;;;435.70;2355.20;;;;;;5012666;28;20040;-79
2022/10/04 13:07:45;;;;;;;13.05;7.55;;;435.80;2355.20;;;;;;5032708;28;20040;-85
2022/10/04 13:10:43;;;;;;;14.52;8.63;;;435.80;2355.20;;;;;;5032503;28;20088;-82
2022/10/04 13:13:26;;;;;;;13.65;8.27;;;435.90;2355.20;;;;;;5034118;28;20069;-84
2022/10/04 13:16:07;;;;;;;16.58;8.95;;;460.80;2380.80;;;;;;5032461;28;20032;-83
2022/10/04 13:18:39;;;;;;;17.25;12.10;;;461.00;2380.80;;;;;;5032333;28;20060;-81
2022/10/04 13:21:14;;;;;;;15.00;8.82;;;461.20;2380.80;;;;;;5032624;28;20534;-81
2022/10/04 13:23:49;;;;;;;13.55;8.98;;;461.20;2380.80;;;;;;5032327;28;20156;-81
2022/10/04 13:26:28;;;;;;;13.13;7.05;;;461.10;2380.80;;;;;;5033655;28;20103;-81
2022/10/04 13:29:32;;;;;;;10.77;5.70;;;461.50;2380.80;;;;;;5032477;28;20383;-81
2022/10/04 13:32:09;;;;;;;8.48;4.10;;;486.70;2380.80;;;;;;5019792;28;20041;-80
2022/10/04 13:34:39;;;;;;;9.30;4.65;;;486.60;2380.80;;;;;;5032313;28;20022;-79
2022/10/04 13:37:30;;;;;;;10.02;6.07;;;486.50;2380.80;;;;;;5032304;28;20030;-80
2022/10/04 13:40:14;;;;;;;8.05;5.35;;;461.70;2380.80;;;;;;5032223;28;20026;-80
2022/10/04 13:43:13;;;;;;;27.23;16.55;;;461.50;2355.20;;;;;;5032281;28;20026;-81
2022/10/04 13:45:49;;;;;;;9.38;4.85;;;461.20;2380.80;;;;;;5031744;28;20030;-81
2022/10/04 13:48:37;;;;;;;14.27;5.28;;;460.90;2380.80;;;;;;5032348;28;20025;-81
2022/10/04 13:51:22;;;;;;;11.80;5.43;;;436.10;2355.20;;;;;;5031625;28;20040;-80
2022/10/04 13:57:19;;;;;;;10.07;4.95;;;435.90;2355.20;;;;;;5042083;28;20451;-79